sensor_id;sensor_type;location;lat;lon;timestamp;pressure;altitude;pressure_sealevel;temperature;humidity
44659;BME280;30378;50.186;8.644;2022-08-25T00:01:29;100398.84;;;16.79;100.00
44659;BME280;30378;50.186;8.644;2022-08-25T00:03:58;100404.41;;;16.79;100.00
44659;BME280;30378;50.186;8.644;2022-08-25T00:06:25;100401.00;;;16.82;100.00
44659;BME280;30378;50.186;8.644;2022-08-25T00:08:53;100392.03;;;16.77;100.00
44659;BME280;30378;50.186;8.644;2022-08-25T00:11:22;100406.56;;;16.74;100.00
44659;BME280;30378;50.186;8.644;2022-08-25T00:13:55;100399.41;;;16.73;100.00
44659;BME280;30378;50.186;8.644;2022-08-25T00:16:24;100396.50;;;16.60;100.00
44659;BME280;30378;50.186;8.644;2022-08-25T00:18:55;100398.81;;;16.58;100.00
44659;BME280;30378;50.186;8.644;2022-08-25T00:21:23;100406.16;;;16.63;100.00
44659;BME280;30378;50.186;8.644;2022-08-25T00:23:51;100403.50;;;16.66;100.00
44659;BME280;30378;50.186;8.644;2022-08-25T00:26:19;100404.81;;;16.69;100.00
44659;BME280;30378;50.186;8.644;2022-08-25T00:28:46;100399.91;;;16.66;100.00
44659;BME280;30378;50.186;8.644;2022-08-25T00:31:17;100398.09;;;16.70;100.00
44659;BME280;30378;50.186;8.644;2022-08-25T00:33:46;100399.72;;;16.71;100.00
44659;BME280;30378;50.186;8.644;2022-08-25T00:36:15;100397.13;;;16.66;100.00
44659;BME280;30378;50.186;8.644;2022-08-25T00:38:46;100406.94;;;16.63;100.00
44659;BME280;30378;50.186;8.644;2022-08-25T00:41:17;100394.56;;;16.61;100.00
44659;BME280;30378;50.186;8.644;2022-08-25T00:43:49;100405.06;;;16.46;100.00
44659;BME280;30378;50.186;8.644;2022-08-25T00:46:23;100394.50;;;16.40;100.00
44659;BME280;30378;50.186;8.644;2022-08-25T00:49:13;100401.19;;;16.39;100.00
44659;BME280;30378;50.186;8.644;2022-08-25T00:51:52;100398.88;;;16.50;100.00
44659;BME280;30378;50.186;8.644;2022-08-25T00:54:25;100404.25;;;16.55;100.00
44659;BME280;30378;50.186;8.644;2022-08-25T00:56:55;100400.59;;;16.63;100.00
44659;BME280;30378;50.186;8.644;2022-08-25T00:59:23;100406.41;;;16.70;100.00
44659;BME280;30378;50.186;8.644;2022-08-25T01:01:53;100404.31;;;16.97;100.00
44659;BME280;30378;50.186;8.644;2022-08-25T01:04:21;100403.88;;;16.86;100.00
44659;BME280;30378;50.186;8.644;2022-08-25T01:06:48;100404.47;;;16.71;100.00
44659;BME280;30378;50.186;8.644;2022-08-25T01:09:16;100399.03;;;16.74;100.00
44659;BME280;30378;50.186;8.644;2022-08-25T01:11:45;100391.34;;;16.50;100.00
44659;BME280;30378;50.186;8.644;2022-08-25T01:14:16;100384.06;;;16.37;100.00
44659;BME280;30378;50.186;8.644;2022-08-25T01:16:44;100386.53;;;16.38;100.00
44659;BME280;30378;50.186;8.644;2022-08-25T01:19:13;100399.09;;;16.36;100.00
44659;BME280;30378;50.186;8.644;2022-08-25T01:21:46;100384.97;;;16.20;100.00
44659;BME280;30378;50.186;8.644;2022-08-25T01:24:45;100385.16;;;16.15;100.00
44659;BME280;30378;50.186;8.644;2022-08-25T01:27:14;100384.69;;;16.13;100.00
44659;BME280;30378;50.186;8.644;2022-08-25T01:29:42;100389.94;;;15.97;100.00
44659;BME280;30378;50.186;8.644;2022-08-25T01:32:11;100402.00;;;16.01;100.00
44659;BME280;30378;50.186;8.644;2022-08-25T01:34:43;100398.78;;;15.90;100.00
44659;BME280;30378;50.186;8.644;2022-08-25T01:37:12;100396.31;;;15.97;100.00
44659;BME280;30378;50.186;8.644;2022-08-25T01:39:41;100397.94;;;15.98;100.00
44659;BME280;30378;50.186;8.644;2022-08-25T01:44:41;100396.50;;;15.83;100.00
44659;BME280;30378;50.186;8.644;2022-08-25T01:47:10;100398.16;;;15.84;100.00
44659;BME280;30378;50.186;8.644;2022-08-25T01:49:37;100396.50;;;15.83;100.00
44659;BME280;30378;50.186;8.644;2022-08-25T01:52:18;100401.59;;;15.73;100.00
44659;BME280;30378;50.186;8.644;2022-08-25T01:54:45;100401.44;;;15.78;100.00
44659;BME280;30378;50.186;8.644;2022-08-25T01:57:13;100402.69;;;15.72;100.00
44659;BME280;30378;50.186;8.644;2022-08-25T01:59:40;100399.31;;;15.75;100.00
44659;BME280;30378;50.186;8.644;2022-08-25T02:02:07;100398.31;;;15.79;100.00
44659;BME280;30378;50.186;8.644;2022-08-25T02:04:34;100401.91;;;15.80;100.00
44659;BME280;30378;50.186;8.644;2022-08-25T02:07:04;100402.25;;;15.78;100.00
44659;BME280;30378;50.186;8.644;2022-08-25T02:09:32;100404.69;;;15.80;100.00
44659;BME280;30378;50.186;8.644;2022-08-25T02:11:59;100399.44;;;15.87;100.00
44659;BME280;30378;50.186;8.644;2022-08-25T02:14:27;100398.78;;;15.81;100.00
44659;BME280;30378;50.186;8.644;2022-08-25T02:16:55;100392.97;;;15.74;100.00
44659;BME280;30378;50.186;8.644;2022-08-25T02:19:23;100392.78;;;15.71;100.00
44659;BME280;30378;50.186;8.644;2022-08-25T02:21:50;100403.22;;;15.65;100.00
44659;BME280;30378;50.186;8.644;2022-08-25T02:24:18;100401.06;;;15.62;100.00
44659;BME280;30378;50.186;8.644;2022-08-25T02:26:45;100396.06;;;15.64;100.00
44659;BME280;30378;50.186;8.644;2022-08-25T02:29:12;100401.72;;;15.67;100.00
44659;BME280;30378;50.186;8.644;2022-08-25T02:31:40;100398.00;;;15.63;100.00
44659;BME280;30378;50.186;8.644;2022-08-25T02:34:07;100400.59;;;15.60;100.00
44659;BME280;30378;50.186;8.644;2022-08-25T02:36:36;100390.19;;;15.57;100.00
44659;BME280;30378;50.186;8.644;2022-08-25T02:39:06;100397.84;;;15.51;100.00
44659;BME280;30378;50.186;8.644;2022-08-25T02:41:34;100393.47;;;15.50;100.00
44659;BME280;30378;50.186;8.644;2022-08-25T02:44:03;100395.41;;;15.50;100.00
44659;BME280;30378;50.186;8.644;2022-08-25T02:46:30;100393.13;;;15.43;100.00
44659;BME280;30378;50.186;8.644;2022-08-25T02:48:58;100393.97;;;15.35;100.00
44659;BME280;30378;50.186;8.644;2022-08-25T02:51:26;100389.25;;;15.26;100.00
44659;BME280;30378;50.186;8.644;2022-08-25T02:53:57;100399.84;;;15.24;100.00
44659;BME280;30378;50.186;8.644;2022-08-25T02:56:25;100396.06;;;15.20;100.00
44659;BME280;30378;50.186;8.644;2022-08-25T02:58:52;100395.94;;;15.17;100.00
44659;BME280;30378;50.186;8.644;2022-08-25T03:01:19;100402.59;;;15.07;100.00
44659;BME280;30378;50.186;8.644;2022-08-25T03:03:48;100396.09;;;15.03;100.00
44659;BME280;30378;50.186;8.644;2022-08-25T03:06:18;100388.56;;;14.95;100.00
44659;BME280;30378;50.186;8.644;2022-08-25T03:08:45;100380.75;;;14.88;100.00
44659;BME280;30378;50.186;8.644;2022-08-25T03:11:12;100379.28;;;14.82;100.00
44659;BME280;30378;50.186;8.644;2022-08-25T03:13:40;100381.06;;;14.78;100.00
44659;BME280;30378;50.186;8.644;2022-08-25T03:16:07;100385.47;;;14.70;100.00
44659;BME280;30378;50.186;8.644;2022-08-25T03:18:37;100379.44;;;14.68;100.00
44659;BME280;30378;50.186;8.644;2022-08-25T03:21:04;100380.91;;;14.65;100.00
44659;BME280;30378;50.186;8.644;2022-08-25T03:23:31;100374.22;;;14.66;100.00
44659;BME280;30378;50.186;8.644;2022-08-25T03:25:58;100372.13;;;14.81;100.00
44659;BME280;30378;50.186;8.644;2022-08-25T03:28:44;100380.59;;;14.76;100.00
44659;BME280;30378;50.186;8.644;2022-08-25T03:31:11;100381.03;;;14.69;100.00
44659;BME280;30378;50.186;8.644;2022-08-25T03:33:38;100382.34;;;14.63;100.00
44659;BME280;30378;50.186;8.644;2022-08-25T03:36:06;100380.41;;;14.63;100.00
44659;BME280;30378;50.186;8.644;2022-08-25T03:38:34;100379.22;;;14.56;100.00
44659;BME280;30378;50.186;8.644;2022-08-25T03:41:30;100383.41;;;14.53;100.00
44659;BME280;30378;50.186;8.644;2022-08-25T03:44:02;100377.25;;;14.47;100.00
44659;BME280;30378;50.186;8.644;2022-08-25T03:46:32;100377.53;;;14.37;100.00
44659;BME280;30378;50.186;8.644;2022-08-25T03:49:01;100370.34;;;14.27;100.00
44659;BME280;30378;50.186;8.644;2022-08-25T03:51:32;100374.06;;;14.23;100.00
44659;BME280;30378;50.186;8.644;2022-08-25T03:54:01;100381.38;;;14.19;100.00
44659;BME280;30378;50.186;8.644;2022-08-25T03:56:29;100379.88;;;14.13;100.00
44659;BME280;30378;50.186;8.644;2022-08-25T03:58:57;100381.66;;;14.08;100.00
44659;BME280;30378;50.186;8.644;2022-08-25T04:01:24;100383.75;;;14.03;100.00
44659;BME280;30378;50.186;8.644;2022-08-25T04:03:51;100387.13;;;14.00;100.00
44659;BME280;30378;50.186;8.644;2022-08-25T04:06:19;100381.44;;;13.96;100.00
44659;BME280;30378;50.186;8.644;2022-08-25T04:08:46;100390.16;;;13.89;100.00
44659;BME280;30378;50.186;8.644;2022-08-25T04:11:16;100380.09;;;13.85;100.00
44659;BME280;30378;50.186;8.644;2022-08-25T04:13:45;100376.19;;;13.86;100.00
44659;BME280;30378;50.186;8.644;2022-08-25T04:16:19;100380.88;;;13.85;100.00
44659;BME280;30378;50.186;8.644;2022-08-25T04:18:49;100373.75;;;13.84;100.00
44659;BME280;30378;50.186;8.644;2022-08-25T04:21:18;100376.19;;;13.86;100.00
44659;BME280;30378;50.186;8.644;2022-08-25T04:23:47;100371.91;;;13.80;100.00
44659;BME280;30378;50.186;8.644;2022-08-25T04:28:46;100379.03;;;13.72;100.00
44659;BME280;30378;50.186;8.644;2022-08-25T04:31:15;100379.88;;;13.73;100.00
44659;BME280;30378;50.186;8.644;2022-08-25T04:33:43;100381.78;;;13.72;100.00
44659;BME280;30378;50.186;8.644;2022-08-25T04:36:12;100382.78;;;13.76;100.00
44659;BME280;30378;50.186;8.644;2022-08-25T04:38:41;100381.47;;;13.74;100.00
44659;BME280;30378;50.186;8.644;2022-08-25T04:41:10;100383.63;;;13.77;100.00
44659;BME280;30378;50.186;8.644;2022-08-25T04:43:39;100375.53;;;13.80;100.00
44659;BME280;30378;50.186;8.644;2022-08-25T04:46:10;100373.41;;;13.86;100.00
44659;BME280;30378;50.186;8.644;2022-08-25T04:48:39;100371.22;;;13.97;100.00
44659;BME280;30378;50.186;8.644;2022-08-25T04:51:08;100374.97;;;14.09;100.00
44659;BME280;30378;50.186;8.644;2022-08-25T04:53:37;100370.81;;;14.21;100.00
44659;BME280;30378;50.186;8.644;2022-08-25T04:56:16;100386.91;;;14.27;100.00
44659;BME280;30378;50.186;8.644;2022-08-25T04:58:43;100387.94;;;14.32;100.00
44659;BME280;30378;50.186;8.644;2022-08-25T05:01:14;100392.00;;;14.34;100.00
44659;BME280;30378;50.186;8.644;2022-08-25T05:03:44;100397.09;;;14.50;100.00
44659;BME280;30378;50.186;8.644;2022-08-25T05:06:13;100385.09;;;14.63;100.00
44659;BME280;30378;50.186;8.644;2022-08-25T05:08:42;100391.34;;;14.77;100.00
44659;BME280;30378;50.186;8.644;2022-08-25T05:11:11;100383.53;;;14.88;100.00
44659;BME280;30378;50.186;8.644;2022-08-25T05:13:40;100374.75;;;15.03;100.00
44659;BME280;30378;50.186;8.644;2022-08-25T05:16:07;100379.94;;;15.22;100.00
44659;BME280;30378;50.186;8.644;2022-08-25T05:18:35;100380.09;;;15.43;100.00
44659;BME280;30378;50.186;8.644;2022-08-25T05:21:05;100378.13;;;15.61;100.00
44659;BME280;30378;50.186;8.644;2022-08-25T05:23:33;100378.44;;;15.86;100.00
44659;BME280;30378;50.186;8.644;2022-08-25T05:26:06;100370.78;;;16.81;100.00
44659;BME280;30378;50.186;8.644;2022-08-25T05:28:34;100362.03;;;19.71;100.00
44659;BME280;30378;50.186;8.644;2022-08-25T05:31:02;100363.72;;;21.88;100.00
44659;BME280;30378;50.186;8.644;2022-08-25T05:33:30;100372.69;;;23.64;90.52
44659;BME280;30378;50.186;8.644;2022-08-25T05:35:57;100366.50;;;23.14;87.94
44659;BME280;30378;50.186;8.644;2022-08-25T05:38:25;100373.34;;;24.32;83.04
44659;BME280;30378;50.186;8.644;2022-08-25T05:40:56;100374.84;;;24.67;78.74
44659;BME280;30378;50.186;8.644;2022-08-25T05:43:23;100367.06;;;25.16;75.50
44659;BME280;30378;50.186;8.644;2022-08-25T05:45:53;100372.06;;;27.09;64.05
44659;BME280;30378;50.186;8.644;2022-08-25T05:48:21;100364.13;;;28.27;56.67
44659;BME280;30378;50.186;8.644;2022-08-25T05:50:53;100376.84;;;28.04;56.02
44659;BME280;30378;50.186;8.644;2022-08-25T05:53:21;100368.16;;;29.43;50.13
44659;BME280;30378;50.186;8.644;2022-08-25T05:55:50;100368.06;;;28.37;54.80
44659;BME280;30378;50.186;8.644;2022-08-25T05:58:18;100362.78;;;29.80;50.00
44659;BME280;30378;50.186;8.644;2022-08-25T06:00:45;100362.59;;;29.02;50.90
44659;BME280;30378;50.186;8.644;2022-08-25T06:03:12;100363.91;;;30.60;48.91
44659;BME280;30378;50.186;8.644;2022-08-25T06:05:40;100367.69;;;30.54;48.15
44659;BME280;30378;50.186;8.644;2022-08-25T06:08:07;100371.50;;;31.11;46.50
44659;BME280;30378;50.186;8.644;2022-08-25T06:10:34;100368.00;;;31.59;44.84
44659;BME280;30378;50.186;8.644;2022-08-25T06:13:03;100371.22;;;31.41;45.39
44659;BME280;30378;50.186;8.644;2022-08-25T06:15:30;100363.19;;;30.33;46.69
44659;BME280;30378;50.186;8.644;2022-08-25T06:17:57;100367.91;;;31.07;46.25
44659;BME280;30378;50.186;8.644;2022-08-25T06:20:28;100371.28;;;31.38;47.26
44659;BME280;30378;50.186;8.644;2022-08-25T06:22:57;100370.22;;;29.70;48.80
44659;BME280;30378;50.186;8.644;2022-08-25T06:25:26;100371.34;;;30.74;46.58
44659;BME280;30378;50.186;8.644;2022-08-25T06:27:53;100374.94;;;30.08;45.67
44659;BME280;30378;50.186;8.644;2022-08-25T06:30:22;100366.22;;;28.19;52.28
44659;BME280;30378;50.186;8.644;2022-08-25T06:32:50;100374.94;;;27.83;57.45
44659;BME280;30378;50.186;8.644;2022-08-25T06:35:18;100367.47;;;27.52;61.60
44659;BME280;30378;50.186;8.644;2022-08-25T06:37:46;100366.94;;;26.68;65.63
44659;BME280;30378;50.186;8.644;2022-08-25T06:40:14;100363.34;;;26.25;69.45
44659;BME280;30378;50.186;8.644;2022-08-25T06:42:42;100363.16;;;25.35;73.86
44659;BME280;30378;50.186;8.644;2022-08-25T06:45:09;100372.19;;;26.23;73.99
44659;BME280;30378;50.186;8.644;2022-08-25T06:47:36;100362.88;;;25.87;74.89
44659;BME280;30378;50.186;8.644;2022-08-25T06:50:04;100364.53;;;26.09;77.56
44659;BME280;30378;50.186;8.644;2022-08-25T06:52:31;100364.94;;;26.22;76.49
44659;BME280;30378;50.186;8.644;2022-08-25T06:54:59;100364.94;;;26.58;72.29
44659;BME280;30378;50.186;8.644;2022-08-25T06:57:26;100361.63;;;25.66;69.66
44659;BME280;30378;50.186;8.644;2022-08-25T06:59:53;100357.69;;;26.36;70.75
44659;BME280;30378;50.186;8.644;2022-08-25T07:02:20;100364.31;;;28.54;58.23
44659;BME280;30378;50.186;8.644;2022-08-25T07:04:48;100355.34;;;30.17;52.67
44659;BME280;30378;50.186;8.644;2022-08-25T07:07:15;100351.72;;;31.43;46.14
44659;BME280;30378;50.186;8.644;2022-08-25T07:09:43;100360.22;;;32.78;44.52
44659;BME280;30378;50.186;8.644;2022-08-25T07:12:10;100358.59;;;33.36;43.48
44659;BME280;30378;50.186;8.644;2022-08-25T07:14:37;100363.91;;;33.63;42.75
44659;BME280;30378;50.186;8.644;2022-08-25T07:17:04;100355.19;;;34.05;39.93
44659;BME280;30378;50.186;8.644;2022-08-25T07:19:31;100345.00;;;33.27;42.95
44659;BME280;30378;50.186;8.644;2022-08-25T07:21:58;100357.94;;;34.09;40.41
44659;BME280;30378;50.186;8.644;2022-08-25T07:24:25;100360.00;;;33.83;39.54
44659;BME280;30378;50.186;8.644;2022-08-25T07:26:52;100354.78;;;33.81;40.87
44659;BME280;30378;50.186;8.644;2022-08-25T07:29:23;100351.31;;;33.61;40.15
44659;BME280;30378;50.186;8.644;2022-08-25T07:31:51;100340.94;;;34.05;42.46
44659;BME280;30378;50.186;8.644;2022-08-25T07:34:18;100341.28;;;34.07;39.82
44659;BME280;30378;50.186;8.644;2022-08-25T07:37:04;100338.16;;;35.50;39.14
44659;BME280;30378;50.186;8.644;2022-08-25T07:39:32;100335.81;;;35.58;38.65
44659;BME280;30378;50.186;8.644;2022-08-25T07:41:59;100343.63;;;36.07;36.79
44659;BME280;30378;50.186;8.644;2022-08-25T07:44:26;100331.91;;;35.65;38.54
44659;BME280;30378;50.186;8.644;2022-08-25T07:46:54;100337.97;;;34.22;39.62
44659;BME280;30378;50.186;8.644;2022-08-25T07:49:22;100331.94;;;33.94;40.97
44659;BME280;30378;50.186;8.644;2022-08-25T07:51:51;100338.69;;;35.05;37.40
44659;BME280;30378;50.186;8.644;2022-08-25T07:54:20;100333.09;;;33.58;39.83
44659;BME280;30378;50.186;8.644;2022-08-25T07:56:49;100338.41;;;35.65;38.18
44659;BME280;30378;50.186;8.644;2022-08-25T07:59:17;100345.53;;;36.01;37.21
44659;BME280;30378;50.186;8.644;2022-08-25T08:01:44;100344.69;;;35.51;38.05
44659;BME280;30378;50.186;8.644;2022-08-25T08:04:12;100337.41;;;36.68;36.22
44659;BME280;30378;50.186;8.644;2022-08-25T08:06:39;100348.44;;;35.39;38.57
44659;BME280;30378;50.186;8.644;2022-08-25T08:09:07;100344.53;;;35.77;38.33
44659;BME280;30378;50.186;8.644;2022-08-25T08:11:35;100340.06;;;35.76;37.76
44659;BME280;30378;50.186;8.644;2022-08-25T08:14:10;100342.28;;;36.49;36.00
44659;BME280;30378;50.186;8.644;2022-08-25T08:16:37;100343.72;;;36.35;36.93
44659;BME280;30378;50.186;8.644;2022-08-25T08:19:05;100345.66;;;36.75;36.04
44659;BME280;30378;50.186;8.644;2022-08-25T08:21:34;100347.53;;;36.50;36.88
44659;BME280;30378;50.186;8.644;2022-08-25T08:24:02;100348.69;;;36.71;35.51
44659;BME280;30378;50.186;8.644;2022-08-25T08:26:31;100343.25;;;36.83;36.36
44659;BME280;30378;50.186;8.644;2022-08-25T08:29:13;100337.56;;;35.02;37.03
44659;BME280;30378;50.186;8.644;2022-08-25T08:31:42;100337.50;;;35.46;38.61
44659;BME280;30378;50.186;8.644;2022-08-25T08:34:09;100333.63;;;33.27;40.65
44659;BME280;30378;50.186;8.644;2022-08-25T08:36:38;100329.84;;;33.17;40.76
44659;BME280;30378;50.186;8.644;2022-08-25T08:39:05;100333.34;;;33.64;40.42
44659;BME280;30378;50.186;8.644;2022-08-25T08:50:15;100328.53;;;33.06;41.15
44659;BME280;30378;50.186;8.644;2022-08-25T08:55:36;100316.50;;;35.09;39.34
44659;BME280;30378;50.186;8.644;2022-08-25T08:58:29;100313.72;;;35.81;37.12
44659;BME280;30378;50.186;8.644;2022-08-25T09:01:01;100316.28;;;33.22;40.19
44659;BME280;30378;50.186;8.644;2022-08-25T09:03:38;100317.38;;;31.74;43.69
44659;BME280;30378;50.186;8.644;2022-08-25T09:06:40;100306.19;;;32.62;43.63
44659;BME280;30378;50.186;8.644;2022-08-25T09:09:10;100305.75;;;33.06;41.36
44659;BME280;30378;50.186;8.644;2022-08-25T09:17:48;100286.81;;;35.06;39.99
44659;BME280;30378;50.186;8.644;2022-08-25T09:20:32;100281.41;;;35.30;37.47
44659;BME280;30378;50.186;8.644;2022-08-25T09:25:56;100291.19;;;33.04;40.65
44659;BME280;30378;50.186;8.644;2022-08-25T09:28:40;100282.59;;;34.89;38.11
44659;BME280;30378;50.186;8.644;2022-08-25T09:31:21;100287.00;;;31.88;41.94
44659;BME280;30378;50.186;8.644;2022-08-25T09:33:55;100286.66;;;34.09;39.68
44659;BME280;30378;50.186;8.644;2022-08-25T09:36:24;100270.19;;;33.52;39.68
44659;BME280;30378;50.186;8.644;2022-08-25T09:38:52;100279.47;;;34.04;39.25
44659;BME280;30378;50.186;8.644;2022-08-25T09:41:53;100271.38;;;34.15;38.59
44659;BME280;30378;50.186;8.644;2022-08-25T09:44:39;100265.06;;;35.00;37.92
44659;BME280;30378;50.186;8.644;2022-08-25T09:47:27;100266.22;;;31.58;42.71
44659;BME280;30378;50.186;8.644;2022-08-25T09:49:58;100270.09;;;31.97;42.34
44659;BME280;30378;50.186;8.644;2022-08-25T09:52:36;100249.59;;;32.93;41.79
44659;BME280;30378;50.186;8.644;2022-08-25T10:05:34;100234.53;;;30.67;45.11
44659;BME280;30378;50.186;8.644;2022-08-25T10:08:12;100226.13;;;31.56;43.82
44659;BME280;30378;50.186;8.644;2022-08-25T10:13:20;100217.66;;;33.02;41.38
44659;BME280;30378;50.186;8.644;2022-08-25T10:18:31;100223.44;;;31.65;41.84
44659;BME280;30378;50.186;8.644;2022-08-25T10:21:05;100222.94;;;31.17;43.96
44659;BME280;30378;50.186;8.644;2022-08-25T10:23:35;100208.94;;;31.27;44.21
44659;BME280;30378;50.186;8.644;2022-08-25T10:26:25;100206.50;;;32.53;43.13
44659;BME280;30378;50.186;8.644;2022-08-25T10:31:55;100195.41;;;32.13;41.40
44659;BME280;30378;50.186;8.644;2022-08-25T10:34:44;100192.78;;;32.35;40.86
44659;BME280;30378;50.186;8.644;2022-08-25T10:40:29;100174.94;;;32.76;43.49
44659;BME280;30378;50.186;8.644;2022-08-25T10:46:21;100170.00;;;29.43;48.02
44659;BME280;30378;50.186;8.644;2022-08-25T10:48:57;100166.75;;;31.91;45.34
44659;BME280;30378;50.186;8.644;2022-08-25T10:51:48;100171.19;;;30.13;44.43
44659;BME280;30378;50.186;8.644;2022-08-25T10:54:34;100169.63;;;31.25;45.09
44659;BME280;30378;50.186;8.644;2022-08-25T10:57:35;100157.56;;;33.61;41.21
44659;BME280;30378;50.186;8.644;2022-08-25T11:00:13;100163.06;;;34.69;39.37
44659;BME280;30378;50.186;8.644;2022-08-25T11:08:07;100150.47;;;29.76;46.73
44659;BME280;30378;50.186;8.644;2022-08-25T11:16:41;100158.25;;;30.72;46.16
44659;BME280;30378;50.186;8.644;2022-08-25T11:19:29;100152.03;;;30.61;47.68
44659;BME280;30378;50.186;8.644;2022-08-25T11:24:54;100143.41;;;31.83;43.30
44659;BME280;30378;50.186;8.644;2022-08-25T11:27:34;100151.59;;;30.22;47.23
44659;BME280;30378;50.186;8.644;2022-08-25T11:30:10;100154.13;;;29.97;48.02
44659;BME280;30378;50.186;8.644;2022-08-25T11:32:39;100148.38;;;30.20;48.28
44659;BME280;30378;50.186;8.644;2022-08-25T11:35:12;100153.22;;;30.43;47.20
44659;BME280;30378;50.186;8.644;2022-08-25T11:40:42;100140.25;;;30.42;50.56
44659;BME280;30378;50.186;8.644;2022-08-25T11:56:36;100118.63;;;33.10;43.05
44659;BME280;30378;50.186;8.644;2022-08-25T11:59:07;100117.56;;;35.15;41.00
44659;BME280;30378;50.186;8.644;2022-08-25T12:04:31;100121.00;;;33.72;39.65
44659;BME280;30378;50.186;8.644;2022-08-25T12:09:33;100115.97;;;33.15;39.04
44659;BME280;30378;50.186;8.644;2022-08-25T12:12:35;100117.69;;;32.19;39.41
44659;BME280;30378;50.186;8.644;2022-08-25T12:18:36;100110.47;;;32.02;39.78
44659;BME280;30378;50.186;8.644;2022-08-25T12:26:51;100095.88;;;33.80;37.34
44659;BME280;30378;50.186;8.644;2022-08-25T12:29:44;100103.66;;;31.54;39.79
44659;BME280;30378;50.186;8.644;2022-08-25T12:35:25;100100.09;;;30.64;42.21
44659;BME280;30378;50.186;8.644;2022-08-25T12:38:03;100099.78;;;30.42;41.96
44659;BME280;30378;50.186;8.644;2022-08-25T12:40:51;100090.56;;;30.18;43.47
44659;BME280;30378;50.186;8.644;2022-08-25T12:43:32;100100.00;;;29.91;44.29
44659;BME280;30378;50.186;8.644;2022-08-25T12:51:25;100093.31;;;30.21;44.81
44659;BME280;30378;50.186;8.644;2022-08-25T12:56:57;100085.19;;;31.75;42.76
44659;BME280;30378;50.186;8.644;2022-08-25T12:59:38;100088.94;;;32.43;41.24
44659;BME280;30378;50.186;8.644;2022-08-25T13:11:06;100080.63;;;31.94;40.68
44659;BME280;30378;50.186;8.644;2022-08-25T13:16:17;100072.63;;;31.59;40.21
44659;BME280;30378;50.186;8.644;2022-08-25T13:18:45;100066.84;;;32.21;40.60
44659;BME280;30378;50.186;8.644;2022-08-25T13:23:53;100064.66;;;34.51;37.59
44659;BME280;30378;50.186;8.644;2022-08-25T13:26:37;100058.63;;;33.96;37.18
44659;BME280;30378;50.186;8.644;2022-08-25T13:31:53;100055.19;;;32.71;39.93
44659;BME280;30378;50.186;8.644;2022-08-25T13:34:24;100062.72;;;31.35;40.60
44659;BME280;30378;50.186;8.644;2022-08-25T13:36:52;100054.56;;;30.71;42.74
44659;BME280;30378;50.186;8.644;2022-08-25T13:39:38;100056.91;;;31.09;41.47
44659;BME280;30378;50.186;8.644;2022-08-25T13:42:19;100049.34;;;31.19;41.96
44659;BME280;30378;50.186;8.644;2022-08-25T13:44:46;100053.47;;;30.29;42.57
44659;BME280;30378;50.186;8.644;2022-08-25T13:47:15;100049.59;;;30.02;43.58
44659;BME280;30378;50.186;8.644;2022-08-25T13:49:46;100047.00;;;30.64;42.81
44659;BME280;30378;50.186;8.644;2022-08-25T13:52:22;100036.88;;;31.16;43.85
44659;BME280;30378;50.186;8.644;2022-08-25T13:54:51;100035.19;;;31.02;42.84
44659;BME280;30378;50.186;8.644;2022-08-25T13:57:25;100050.22;;;30.83;43.32
44659;BME280;30378;50.186;8.644;2022-08-25T14:00:00;100046.34;;;30.77;43.23
44659;BME280;30378;50.186;8.644;2022-08-25T14:02:48;100040.25;;;30.22;42.97
44659;BME280;30378;50.186;8.644;2022-08-25T14:05:31;100027.28;;;30.61;43.71
44659;BME280;30378;50.186;8.644;2022-08-25T14:07:59;100034.88;;;30.64;42.28
44659;BME280;30378;50.186;8.644;2022-08-25T14:13:23;100027.19;;;32.56;39.22
44659;BME280;30378;50.186;8.644;2022-08-25T14:16:13;100025.84;;;33.56;37.82
44659;BME280;30378;50.186;8.644;2022-08-25T14:18:52;100021.94;;;33.41;36.48
44659;BME280;30378;50.186;8.644;2022-08-25T14:21:26;100018.59;;;33.21;36.09
44659;BME280;30378;50.186;8.644;2022-08-25T14:23:55;100010.81;;;32.35;37.05
44659;BME280;30378;50.186;8.644;2022-08-25T14:26:23;100007.78;;;31.58;37.56
44659;BME280;30378;50.186;8.644;2022-08-25T14:28:51;100013.31;;;31.32;38.75
44659;BME280;30378;50.186;8.644;2022-08-25T14:31:25;100004.25;;;31.96;37.64
44659;BME280;30378;50.186;8.644;2022-08-25T14:34:05;100002.38;;;30.85;40.55
44659;BME280;30378;50.186;8.644;2022-08-25T14:36:34;99999.16;;;31.16;40.56
44659;BME280;30378;50.186;8.644;2022-08-25T14:39:01;99994.69;;;31.90;38.87
44659;BME280;30378;50.186;8.644;2022-08-25T14:41:34;99991.72;;;31.51;38.96
44659;BME280;30378;50.186;8.644;2022-08-25T14:44:03;99992.25;;;32.43;38.50
44659;BME280;30378;50.186;8.644;2022-08-25T14:46:33;99986.47;;;32.47;38.77
44659;BME280;30378;50.186;8.644;2022-08-25T14:49:05;99989.00;;;31.31;39.43
44659;BME280;30378;50.186;8.644;2022-08-25T14:51:33;99980.56;;;30.66;39.89
44659;BME280;30378;50.186;8.644;2022-08-25T14:54:04;99974.56;;;31.26;38.54
44659;BME280;30378;50.186;8.644;2022-08-25T14:56:33;99972.19;;;31.95;38.04
44659;BME280;30378;50.186;8.644;2022-08-25T14:59:00;99977.25;;;32.55;36.84
44659;BME280;30378;50.186;8.644;2022-08-25T15:01:28;99968.47;;;32.50;37.23
44659;BME280;30378;50.186;8.644;2022-08-25T15:04:14;99970.84;;;32.38;37.74
44659;BME280;30378;50.186;8.644;2022-08-25T15:06:43;99964.00;;;31.97;38.29
44659;BME280;30378;50.186;8.644;2022-08-25T15:09:14;99977.47;;;31.38;39.07
44659;BME280;30378;50.186;8.644;2022-08-25T15:11:48;99964.50;;;31.37;40.09
44659;BME280;30378;50.186;8.644;2022-08-25T15:14:16;99957.81;;;31.73;40.00